sensor_id;sensor_type;location;lat;lon;timestamp;P1;durP1;ratioP1;P2;durP2;ratioP2
45863;SDS011;31579;52.354;16.974;2023-05-07T00:03:51;9.50;;;5.40;;
45863;SDS011;31579;52.354;16.974;2023-05-07T00:08:51;9.50;;;5.40;;
45863;SDS011;31579;52.354;16.974;2023-05-07T00:13:53;12.20;;;5.30;;
45863;SDS011;31579;52.354;16.974;2023-05-07T00:18:51;12.20;;;5.30;;
45863;SDS011;31579;52.354;16.974;2023-05-07T00:23:51;11.00;;;5.80;;
45863;SDS011;31579;52.354;16.974;2023-05-07T00:28:51;11.00;;;5.80;;
45863;SDS011;31579;52.354;16.974;2023-05-07T00:33:51;10.50;;;5.70;;
45863;SDS011;31579;52.354;16.974;2023-05-07T00:39:04;10.50;;;5.70;;
45863;SDS011;31579;52.354;16.974;2023-05-07T00:39:40;10.50;;;5.70;;
45863;SDS011;31579;52.354;16.974;2023-05-07T00:44:39;8.50;;;4.40;;
45863;SDS011;31579;52.354;16.974;2023-05-07T00:49:41;8.50;;;4.40;;
45863;SDS011;31579;52.354;16.974;2023-05-07T00:54:43;8.30;;;4.40;;
45863;SDS011;31579;52.354;16.974;2023-05-07T00:59:39;8.30;;;4.40;;
45863;SDS011;31579;52.354;16.974;2023-05-07T01:00:08;8.30;;;4.40;;
45863;SDS011;31579;52.354;16.974;2023-05-07T01:05:07;9.60;;;5.00;;
45863;SDS011;31579;52.354;16.974;2023-05-07T01:10:06;9.60;;;5.00;;
45863;SDS011;31579;52.354;16.974;2023-05-07T01:15:07;9.70;;;4.50;;
45863;SDS011;31579;52.354;16.974;2023-05-07T01:20:07;9.70;;;4.50;;
45863;SDS011;31579;52.354;16.974;2023-05-07T01:25:07;8.90;;;5.00;;
45863;SDS011;31579;52.354;16.974;2023-05-07T01:30:11;8.90;;;5.00;;
45863;SDS011;31579;52.354;16.974;2023-05-07T01:35:07;10.00;;;5.60;;
45863;SDS011;31579;52.354;16.974;2023-05-07T01:40:07;10.00;;;5.60;;
45863;SDS011;31579;52.354;16.974;2023-05-07T01:45:07;10.00;;;6.30;;
45863;SDS011;31579;52.354;16.974;2023-05-07T01:50:06;10.00;;;6.30;;
45863;SDS011;31579;52.354;16.974;2023-05-07T01:54:49;12.90;;;7.70;;
45863;SDS011;31579;52.354;16.974;2023-05-07T01:59:47;12.90;;;7.70;;
45863;SDS011;31579;52.354;16.974;2023-05-07T02:04:47;14.20;;;8.40;;
45863;SDS011;31579;52.354;16.974;2023-05-07T02:09:47;14.20;;;8.40;;
45863;SDS011;31579;52.354;16.974;2023-05-07T02:14:47;16.10;;;9.10;;
45863;SDS011;31579;52.354;16.974;2023-05-07T02:19:47;16.10;;;9.10;;
45863;SDS011;31579;52.354;16.974;2023-05-07T02:24:48;14.80;;;9.00;;
45863;SDS011;31579;52.354;16.974;2023-05-07T02:29:47;14.80;;;9.00;;
45863;SDS011;31579;52.354;16.974;2023-05-07T02:34:49;16.90;;;9.80;;
45863;SDS011;31579;52.354;16.974;2023-05-07T02:39:48;16.90;;;9.80;;
45863;SDS011;31579;52.354;16.974;2023-05-07T02:44:47;15.50;;;9.40;;
45863;SDS011;31579;52.354;16.974;2023-05-07T02:49:47;15.50;;;9.40;;
45863;SDS011;31579;52.354;16.974;2023-05-07T02:54:47;18.20;;;10.40;;
45863;SDS011;31579;52.354;16.974;2023-05-07T03:02:52;17.70;;;10.50;;
45863;SDS011;31579;52.354;16.974;2023-05-07T03:07:52;17.70;;;10.50;;
45863;SDS011;31579;52.354;16.974;2023-05-07T03:12:52;19.50;;;11.70;;
45863;SDS011;31579;52.354;16.974;2023-05-07T03:17:52;19.50;;;11.70;;
45863;SDS011;31579;52.354;16.974;2023-05-07T03:22:52;17.60;;;10.30;;
45863;SDS011;31579;52.354;16.974;2023-05-07T03:27:55;17.60;;;10.30;;
45863;SDS011;31579;52.354;16.974;2023-05-07T03:32:52;18.20;;;11.10;;
45863;SDS011;31579;52.354;16.974;2023-05-07T03:37:52;18.20;;;11.10;;
45863;SDS011;31579;52.354;16.974;2023-05-07T03:42:52;18.80;;;10.90;;
45863;SDS011;31579;52.354;16.974;2023-05-07T03:47:52;18.80;;;10.90;;
45863;SDS011;31579;52.354;16.974;2023-05-07T03:52:52;17.60;;;9.30;;
45863;SDS011;31579;52.354;16.974;2023-05-07T03:57:52;17.60;;;9.30;;
45863;SDS011;31579;52.354;16.974;2023-05-07T04:02:52;17.00;;;9.50;;
45863;SDS011;31579;52.354;16.974;2023-05-07T04:07:52;17.00;;;9.50;;
45863;SDS011;31579;52.354;16.974;2023-05-07T04:12:52;15.00;;;9.00;;
45863;SDS011;31579;52.354;16.974;2023-05-07T04:17:52;15.00;;;9.00;;
45863;SDS011;31579;52.354;16.974;2023-05-07T04:22:52;20.60;;;8.40;;
45863;SDS011;31579;52.354;16.974;2023-05-07T04:27:52;20.60;;;8.40;;
45863;SDS011;31579;52.354;16.974;2023-05-07T04:32:54;11.60;;;7.40;;
45863;SDS011;31579;52.354;16.974;2023-05-07T04:37:52;11.60;;;7.40;;
45863;SDS011;31579;52.354;16.974;2023-05-07T04:42:52;13.60;;;8.10;;
45863;SDS011;31579;52.354;16.974;2023-05-07T04:47:52;13.60;;;8.10;;
45863;SDS011;31579;52.354;16.974;2023-05-07T04:52:52;14.00;;;8.20;;
45863;SDS011;31579;52.354;16.974;2023-05-07T04:57:52;14.00;;;8.20;;
45863;SDS011;31579;52.354;16.974;2023-05-07T05:02:52;11.30;;;6.90;;
45863;SDS011;31579;52.354;16.974;2023-05-07T05:07:52;11.30;;;6.90;;
45863;SDS011;31579;52.354;16.974;2023-05-07T05:12:52;8.40;;;5.20;;
45863;SDS011;31579;52.354;16.974;2023-05-07T05:17:52;8.40;;;5.20;;
45863;SDS011;31579;52.354;16.974;2023-05-07T05:22:54;10.80;;;5.50;;
45863;SDS011;31579;52.354;16.974;2023-05-07T05:27:11;10.80;;;5.50;;
45863;SDS011;31579;52.354;16.974;2023-05-07T05:32:09;10.80;;;5.50;;
45863;SDS011;31579;52.354;16.974;2023-05-07T05:37:12;6.90;;;4.30;;
45863;SDS011;31579;52.354;16.974;2023-05-07T05:42:10;6.90;;;4.30;;
45863;SDS011;31579;52.354;16.974;2023-05-07T05:47:10;7.50;;;3.90;;
45863;SDS011;31579;52.354;16.974;2023-05-07T05:52:11;7.50;;;3.90;;
45863;SDS011;31579;52.354;16.974;2023-05-07T05:57:10;7.90;;;3.50;;
45863;SDS011;31579;52.354;16.974;2023-05-07T06:02:10;7.90;;;3.50;;
45863;SDS011;31579;52.354;16.974;2023-05-07T06:07:15;6.50;;;3.50;;
45863;SDS011;31579;52.354;16.974;2023-05-07T06:12:11;6.50;;;3.50;;
45863;SDS011;31579;52.354;16.974;2023-05-07T06:17:10;6.30;;;2.90;;
45863;SDS011;31579;52.354;16.974;2023-05-07T06:22:11;6.30;;;2.90;;
45863;SDS011;31579;52.354;16.974;2023-05-07T06:27:10;7.00;;;3.00;;
45863;SDS011;31579;52.354;16.974;2023-05-07T06:32:11;7.00;;;3.00;;
45863;SDS011;31579;52.354;16.974;2023-05-07T06:37:10;4.90;;;2.50;;
45863;SDS011;31579;52.354;16.974;2023-05-07T06:42:10;4.90;;;2.50;;
45863;SDS011;31579;52.354;16.974;2023-05-07T06:47:10;5.90;;;2.30;;
45863;SDS011;31579;52.354;16.974;2023-05-07T06:52:10;5.90;;;2.30;;
45863;SDS011;31579;52.354;16.974;2023-05-07T06:57:10;4.80;;;2.00;;
45863;SDS011;31579;52.354;16.974;2023-05-07T07:02:10;4.80;;;2.00;;
45863;SDS011;31579;52.354;16.974;2023-05-07T07:07:10;4.70;;;1.90;;
45863;SDS011;31579;52.354;16.974;2023-05-07T07:12:10;4.70;;;1.90;;
45863;SDS011;31579;52.354;16.974;2023-05-07T07:18:17;4.80;;;2.00;;
45863;SDS011;31579;52.354;16.974;2023-05-07T07:23:18;5.70;;;1.80;;
45863;SDS011;31579;52.354;16.974;2023-05-07T07:28:20;5.70;;;1.80;;
45863;SDS011;31579;52.354;16.974;2023-05-07T07:33:17;4.00;;;1.70;;
45863;SDS011;31579;52.354;16.974;2023-05-07T07:34:57;4.00;;;1.70;;
45863;SDS011;31579;52.354;16.974;2023-05-07T07:39:56;4.00;;;1.70;;
45863;SDS011;31579;52.354;16.974;2023-05-07T07:44:56;4.50;;;2.10;;
45863;SDS011;31579;52.354;16.974;2023-05-07T07:52:57;3.90;;;2.10;;
45863;SDS011;31579;52.354;16.974;2023-05-07T07:57:57;3.90;;;2.10;;
45863;SDS011;31579;52.354;16.974;2023-05-07T08:02:57;3.20;;;1.60;;
45863;SDS011;31579;52.354;16.974;2023-05-07T08:07:57;3.20;;;1.60;;
45863;SDS011;31579;52.354;16.974;2023-05-07T08:12:57;3.80;;;1.50;;
45863;SDS011;31579;52.354;16.974;2023-05-07T08:18:01;3.80;;;1.50;;
45863;SDS011;31579;52.354;16.974;2023-05-07T08:22:57;3.30;;;1.60;;
45863;SDS011;31579;52.354;16.974;2023-05-07T08:27:57;3.30;;;1.60;;
45863;SDS011;31579;52.354;16.974;2023-05-07T08:32:57;3.60;;;1.50;;
45863;SDS011;31579;52.354;16.974;2023-05-07T08:37:57;3.60;;;1.50;;
45863;SDS011;31579;52.354;16.974;2023-05-07T08:42:57;6.80;;;1.70;;
45863;SDS011;31579;52.354;16.974;2023-05-07T08:47:58;6.80;;;1.70;;
45863;SDS011;31579;52.354;16.974;2023-05-07T08:52:57;3.90;;;1.90;;
45863;SDS011;31579;52.354;16.974;2023-05-07T08:57:57;3.90;;;1.90;;
45863;SDS011;31579;52.354;16.974;2023-05-07T09:02:57;3.80;;;1.60;;
45863;SDS011;31579;52.354;16.974;2023-05-07T09:12:57;4.90;;;2.00;;
45863;SDS011;31579;52.354;16.974;2023-05-07T09:22:57;2.90;;;1.50;;
45863;SDS011;31579;52.354;16.974;2023-05-07T09:27:57;2.90;;;1.50;;
45863;SDS011;31579;52.354;16.974;2023-05-07T09:32:58;4.20;;;2.00;;
45863;SDS011;31579;52.354;16.974;2023-05-07T09:38:00;4.20;;;2.00;;
45863;SDS011;31579;52.354;16.974;2023-05-07T09:43:07;3.10;;;1.70;;
45863;SDS011;31579;52.354;16.974;2023-05-07T09:47:58;3.10;;;1.70;;
45863;SDS011;31579;52.354;16.974;2023-05-07T09:52:57;4.60;;;1.50;;
45863;SDS011;31579;52.354;16.974;2023-05-07T09:57:10;4.60;;;1.50;;
45863;SDS011;31579;52.354;16.974;2023-05-07T10:02:07;4.80;;;1.80;;
45863;SDS011;31579;52.354;16.974;2023-05-07T10:07:07;4.80;;;1.80;;
45863;SDS011;31579;52.354;16.974;2023-05-07T10:12:07;5.70;;;2.30;;
45863;SDS011;31579;52.354;16.974;2023-05-07T10:17:07;5.70;;;2.30;;
45863;SDS011;31579;52.354;16.974;2023-05-07T10:22:07;4.90;;;1.90;;
45863;SDS011;31579;52.354;16.974;2023-05-07T10:27:08;4.90;;;1.90;;
45863;SDS011;31579;52.354;16.974;2023-05-07T10:37:05;3.30;;;1.70;;
45863;SDS011;31579;52.354;16.974;2023-05-07T10:47:07;3.90;;;1.70;;
45863;SDS011;31579;52.354;16.974;2023-05-07T11:02:05;3.10;;;1.40;;
45863;SDS011;31579;52.354;16.974;2023-05-07T11:08:58;3.10;;;1.40;;
45863;SDS011;31579;52.354;16.974;2023-05-07T11:13:56;3.80;;;1.30;;
45863;SDS011;31579;52.354;16.974;2023-05-07T11:18:56;3.80;;;1.30;;
45863;SDS011;31579;52.354;16.974;2023-05-07T11:23:56;3.60;;;1.40;;
45863;SDS011;31579;52.354;16.974;2023-05-07T11:28:56;3.60;;;1.40;;
45863;SDS011;31579;52.354;16.974;2023-05-07T11:33:56;2.40;;;1.10;;
45863;SDS011;31579;52.354;16.974;2023-05-07T11:38:59;2.40;;;1.10;;
45863;SDS011;31579;52.354;16.974;2023-05-07T11:43:57;3.10;;;1.50;;
45863;SDS011;31579;52.354;16.974;2023-05-07T11:48:56;3.10;;;1.50;;
45863;SDS011;31579;52.354;16.974;2023-05-07T11:53:56;4.70;;;1.60;;
45863;SDS011;31579;52.354;16.974;2023-05-07T11:58:56;4.70;;;1.60;;
45863;SDS011;31579;52.354;16.974;2023-05-07T12:03:56;4.80;;;1.90;;
45863;SDS011;31579;52.354;16.974;2023-05-07T12:08:56;4.80;;;1.90;;
45863;SDS011;31579;52.354;16.974;2023-05-07T12:18:03;3.80;;;1.50;;
45863;SDS011;31579;52.354;16.974;2023-05-07T12:23:03;4.60;;;1.50;;
45863;SDS011;31579;52.354;16.974;2023-05-07T12:28:03;4.60;;;1.50;;
45863;SDS011;31579;52.354;16.974;2023-05-07T12:33:03;5.20;;;1.60;;
45863;SDS011;31579;52.354;16.974;2023-05-07T12:38:03;5.20;;;1.60;;
45863;SDS011;31579;52.354;16.974;2023-05-07T12:43:07;3.10;;;1.40;;
45863;SDS011;31579;52.354;16.974;2023-05-07T12:48:03;3.10;;;1.40;;
45863;SDS011;31579;52.354;16.974;2023-05-07T12:53:03;4.70;;;1.90;;
45863;SDS011;31579;52.354;16.974;2023-05-07T12:58:03;4.70;;;1.90;;
45863;SDS011;31579;52.354;16.974;2023-05-07T13:03:03;3.10;;;1.70;;
45863;SDS011;31579;52.354;16.974;2023-05-07T13:08:03;3.10;;;1.70;;
45863;SDS011;31579;52.354;16.974;2023-05-07T13:13:03;3.80;;;1.90;;
45863;SDS011;31579;52.354;16.974;2023-05-07T13:18:03;3.80;;;1.90;;
45863;SDS011;31579;52.354;16.974;2023-05-07T13:23:03;4.20;;;1.80;;
45863;SDS011;31579;52.354;16.974;2023-05-07T13:28:03;4.20;;;1.80;;
45863;SDS011;31579;52.354;16.974;2023-05-07T13:33:03;3.30;;;1.50;;
45863;SDS011;31579;52.354;16.974;2023-05-07T13:38:03;3.30;;;1.50;;
45863;SDS011;31579;52.354;16.974;2023-05-07T13:43:05;3.30;;;1.60;;
45863;SDS011;31579;52.354;16.974;2023-05-07T13:48:05;3.30;;;1.60;;
45863;SDS011;31579;52.354;16.974;2023-05-07T13:53:03;5.80;;;1.70;;
45863;SDS011;31579;52.354;16.974;2023-05-07T13:58:03;5.80;;;1.70;;
45863;SDS011;31579;52.354;16.974;2023-05-07T14:03:04;3.60;;;1.70;;
45863;SDS011;31579;52.354;16.974;2023-05-07T14:08:03;3.60;;;1.70;;
45863;SDS011;31579;52.354;16.974;2023-05-07T14:13:03;4.30;;;1.70;;
45863;SDS011;31579;52.354;16.974;2023-05-07T14:18:03;4.30;;;1.70;;
45863;SDS011;31579;52.354;16.974;2023-05-07T14:23:03;3.60;;;1.60;;
45863;SDS011;31579;52.354;16.974;2023-05-07T14:28:03;3.60;;;1.60;;
45863;SDS011;31579;52.354;16.974;2023-05-07T14:33:03;3.50;;;1.50;;
45863;SDS011;31579;52.354;16.974;2023-05-07T14:38:03;3.50;;;1.50;;
45863;SDS011;31579;52.354;16.974;2023-05-07T14:43:03;4.30;;;1.60;;
45863;SDS011;31579;52.354;16.974;2023-05-07T14:48:03;4.30;;;1.60;;
45863;SDS011;31579;52.354;16.974;2023-05-07T14:53:06;5.00;;;1.90;;
45863;SDS011;31579;52.354;16.974;2023-05-07T15:00:10;5.00;;;1.90;;
45863;SDS011;31579;52.354;16.974;2023-05-07T15:05:09;3.80;;;1.90;;
45863;SDS011;31579;52.354;16.974;2023-05-07T15:10:10;3.80;;;1.90;;
45863;SDS011;31579;52.354;16.974;2023-05-07T15:15:10;4.00;;;1.90;;
45863;SDS011;31579;52.354;16.974;2023-05-07T15:20:10;4.00;;;1.90;;
45863;SDS011;31579;52.354;16.974;2023-05-07T15:25:14;4.10;;;1.90;;
45863;SDS011;31579;52.354;16.974;2023-05-07T15:30:10;4.10;;;1.90;;
45863;SDS011;31579;52.354;16.974;2023-05-07T15:35:10;4.70;;;1.80;;
45863;SDS011;31579;52.354;16.974;2023-05-07T15:40:10;4.70;;;1.80;;
45863;SDS011;31579;52.354;16.974;2023-05-07T15:45:10;3.60;;;1.80;;
45863;SDS011;31579;52.354;16.974;2023-05-07T15:50:10;3.60;;;1.80;;
45863;SDS011;31579;52.354;16.974;2023-05-07T15:55:09;3.90;;;2.20;;
45863;SDS011;31579;52.354;16.974;2023-05-07T16:01:03;3.90;;;2.20;;
45863;SDS011;31579;52.354;16.974;2023-05-07T16:06:03;3.70;;;1.60;;
45863;SDS011;31579;52.354;16.974;2023-05-07T16:10:13;3.70;;;1.60;;
45863;SDS011;31579;52.354;16.974;2023-05-07T16:15:11;7.20;;;2.10;;
45863;SDS011;31579;52.354;16.974;2023-05-07T16:20:11;7.20;;;2.10;;
45863;SDS011;31579;52.354;16.974;2023-05-07T16:27:02;4.30;;;2.10;;
45863;SDS011;31579;52.354;16.974;2023-05-07T16:32:02;4.00;;;1.90;;
45863;SDS011;31579;52.354;16.974;2023-05-07T16:37:02;4.00;;;1.90;;
45863;SDS011;31579;52.354;16.974;2023-05-07T16:42:02;3.70;;;1.90;;
45863;SDS011;31579;52.354;16.974;2023-05-07T16:47:02;3.70;;;1.90;;
45863;SDS011;31579;52.354;16.974;2023-05-07T16:52:06;4.10;;;1.90;;
45863;SDS011;31579;52.354;16.974;2023-05-07T16:57:02;4.10;;;1.90;;
45863;SDS011;31579;52.354;16.974;2023-05-07T17:02:02;3.90;;;2.10;;
45863;SDS011;31579;52.354;16.974;2023-05-07T17:07:02;3.90;;;2.10;;
45863;SDS011;31579;52.354;16.974;2023-05-07T17:12:03;6.50;;;2.30;;
45863;SDS011;31579;52.354;16.974;2023-05-07T17:17:02;6.50;;;2.30;;
45863;SDS011;31579;52.354;16.974;2023-05-07T17:22:02;3.90;;;2.00;;
45863;SDS011;31579;52.354;16.974;2023-05-07T17:27:02;3.90;;;2.00;;
45863;SDS011;31579;52.354;16.974;2023-05-07T17:32:02;5.30;;;2.00;;
45863;SDS011;31579;52.354;16.974;2023-05-07T17:37:02;5.30;;;2.00;;
45863;SDS011;31579;52.354;16.974;2023-05-07T17:42:02;4.90;;;2.20;;
45863;SDS011;31579;52.354;16.974;2023-05-07T17:47:02;4.90;;;2.20;;
45863;SDS011;31579;52.354;16.974;2023-05-07T17:52:02;4.70;;;2.10;;
45863;SDS011;31579;52.354;16.974;2023-05-07T17:57:05;4.70;;;2.10;;
45863;SDS011;31579;52.354;16.974;2023-05-07T18:02:02;4.30;;;2.20;;
45863;SDS011;31579;52.354;16.974;2023-05-07T18:07:02;4.30;;;2.20;;
45863;SDS011;31579;52.354;16.974;2023-05-07T18:12:02;6.10;;;2.90;;
45863;SDS011;31579;52.354;16.974;2023-05-07T18:17:02;6.10;;;2.90;;
45863;SDS011;31579;52.354;16.974;2023-05-07T18:21:39;7.00;;;4.50;;
45863;SDS011;31579;52.354;16.974;2023-05-07T18:26:37;7.00;;;4.50;;
45863;SDS011;31579;52.354;16.974;2023-05-07T18:31:37;7.00;;;4.50;;
45863;SDS011;31579;52.354;16.974;2023-05-07T18:36:37;10.10;;;5.30;;
45863;SDS011;31579;52.354;16.974;2023-05-07T18:41:37;10.10;;;5.30;;
45863;SDS011;31579;52.354;16.974;2023-05-07T18:46:37;10.50;;;6.50;;
45863;SDS011;31579;52.354;16.974;2023-05-07T18:51:38;10.50;;;6.50;;
45863;SDS011;31579;52.354;16.974;2023-05-07T18:56:37;12.00;;;6.60;;
45863;SDS011;31579;52.354;16.974;2023-05-07T19:01:37;12.00;;;6.60;;
45863;SDS011;31579;52.354;16.974;2023-05-07T19:06:37;11.00;;;5.40;;
45863;SDS011;31579;52.354;16.974;2023-05-07T19:11:37;11.00;;;5.40;;
45863;SDS011;31579;52.354;16.974;2023-05-07T19:16:37;12.50;;;6.60;;
45863;SDS011;31579;52.354;16.974;2023-05-07T19:21:37;12.50;;;6.60;;
45863;SDS011;31579;52.354;16.974;2023-05-07T19:22:37;12.60;;;5.80;;
45863;SDS011;31579;52.354;16.974;2023-05-07T19:27:35;12.60;;;5.80;;
45863;SDS011;31579;52.354;16.974;2023-05-07T19:32:35;9.80;;;5.10;;
45863;SDS011;31579;52.354;16.974;2023-05-07T19:37:35;9.80;;;5.10;;
45863;SDS011;31579;52.354;16.974;2023-05-07T19:42:35;9.00;;;4.50;;
45863;SDS011;31579;52.354;16.974;2023-05-07T19:52:21;10.80;;;5.80;;
45863;SDS011;31579;52.354;16.974;2023-05-07T20:02:06;11.30;;;6.30;;
45863;SDS011;31579;52.354;16.974;2023-05-07T20:07:06;11.30;;;6.30;;
45863;SDS011;31579;52.354;16.974;2023-05-07T20:12:06;15.30;;;6.80;;
45863;SDS011;31579;52.354;16.974;2023-05-07T20:17:06;15.30;;;6.80;;
45863;SDS011;31579;52.354;16.974;2023-05-07T20:22:06;17.10;;;8.50;;
45863;SDS011;31579;52.354;16.974;2023-05-07T20:27:06;17.10;;;8.50;;
45863;SDS011;31579;52.354;16.974;2023-05-07T20:32:06;17.90;;;8.60;;
45863;SDS011;31579;52.354;16.974;2023-05-07T20:37:06;17.90;;;8.60;;
45863;SDS011;31579;52.354;16.974;2023-05-07T20:42:12;17.90;;;8.60;;
45863;SDS011;31579;52.354;16.974;2023-05-07T20:47:10;16.90;;;8.30;;
45863;SDS011;31579;52.354;16.974;2023-05-07T20:52:10;18.20;;;9.70;;
45863;SDS011;31579;52.354;16.974;2023-05-07T20:57:10;18.20;;;9.70;;
45863;SDS011;31579;52.354;16.974;2023-05-07T21:02:10;14.80;;;7.90;;
45863;SDS011;31579;52.354;16.974;2023-05-07T21:07:10;14.80;;;7.90;;
45863;SDS011;31579;52.354;16.974;2023-05-07T21:12:14;17.70;;;9.60;;
45863;SDS011;31579;52.354;16.974;2023-05-07T21:17:11;17.70;;;9.60;;
45863;SDS011;31579;52.354;16.974;2023-05-07T21:22:10;26.70;;;12.80;;
45863;SDS011;31579;52.354;16.974;2023-05-07T21:27:10;26.70;;;12.80;;
45863;SDS011;31579;52.354;16.974;2023-05-07T21:32:10;26.30;;;13.10;;
45863;SDS011;31579;52.354;16.974;2023-05-07T21:37:10;26.30;;;13.10;;
45863;SDS011;31579;52.354;16.974;2023-05-07T21:42:10;48.10;;;21.50;;
45863;SDS011;31579;52.354;16.974;2023-05-07T21:47:10;48.10;;;21.50;;
45863;SDS011;31579;52.354;16.974;2023-05-07T21:52:12;19.40;;;11.50;;
45863;SDS011;31579;52.354;16.974;2023-05-07T21:57:10;19.40;;;11.50;;
45863;SDS011;31579;52.354;16.974;2023-05-07T22:02:10;22.60;;;11.70;;
45863;SDS011;31579;52.354;16.974;2023-05-07T22:07:10;22.60;;;11.70;;
45863;SDS011;31579;52.354;16.974;2023-05-07T22:12:10;27.60;;;13.10;;
45863;SDS011;31579;52.354;16.974;2023-05-07T22:17:10;27.60;;;13.10;;
45863;SDS011;31579;52.354;16.974;2023-05-07T22:22:10;19.70;;;10.10;;
45863;SDS011;31579;52.354;16.974;2023-05-07T22:27:10;19.70;;;10.10;;
45863;SDS011;31579;52.354;16.974;2023-05-07T22:32:14;17.20;;;8.80;;
45863;SDS011;31579;52.354;16.974;2023-05-07T22:33:24;17.20;;;8.80;;
45863;SDS011;31579;52.354;16.974;2023-05-07T22:38:23;17.20;;;8.80;;
45863;SDS011;31579;52.354;16.974;2023-05-07T22:43:04;21.50;;;10.80;;
45863;SDS011;31579;52.354;16.974;2023-05-07T22:48:03;21.50;;;10.80;;
45863;SDS011;31579;52.354;16.974;2023-05-07T22:53:03;19.60;;;12.60;;
45863;SDS011;31579;52.354;16.974;2023-05-07T22:58:03;19.60;;;12.60;;
45863;SDS011;31579;52.354;16.974;2023-05-07T23:03:03;23.20;;;13.20;;
45863;SDS011;31579;52.354;16.974;2023-05-07T23:08:03;23.20;;;13.20;;
45863;SDS011;31579;52.354;16.974;2023-05-07T23:13:06;19.40;;;11.20;;
45863;SDS011;31579;52.354;16.974;2023-05-07T23:18:03;19.40;;;11.20;;
45863;SDS011;31579;52.354;16.974;2023-05-07T23:23:03;18.70;;;10.90;;
45863;SDS011;31579;52.354;16.974;2023-05-07T23:28:04;18.70;;;10.90;;
45863;SDS011;31579;52.354;16.974;2023-05-07T23:33:03;29.40;;;14.60;;
45863;SDS011;31579;52.354;16.974;2023-05-07T23:38:03;29.40;;;14.60;;
45863;SDS011;31579;52.354;16.974;2023-05-07T23:43:03;29.10;;;17.10;;
45863;SDS011;31579;52.354;16.974;2023-05-07T23:48:03;29.10;;;17.10;;
45863;SDS011;31579;52.354;16.974;2023-05-07T23:53:03;32.70;;;18.30;;
45863;SDS011;31579;52.354;16.974;2023-05-07T23:58:03;32.70;;;18.30;;
